sensor_id;sensor_type;location;lat;lon;timestamp;P1;durP1;ratioP1;P2;durP2;ratioP2
6791;SDS011;3433;48.730;9.108;2022-09-20T00:00:32;2.60;;;2.33;;
6791;SDS011;3433;48.730;9.108;2022-09-20T00:03:19;8.70;;;2.80;;
6791;SDS011;3433;48.730;9.108;2022-09-20T00:06:07;4.87;;;2.83;;
6791;SDS011;3433;48.730;9.108;2022-09-20T00:08:56;5.80;;;2.60;;
6791;SDS011;3433;48.730;9.108;2022-09-20T00:11:47;3.80;;;2.67;;
6791;SDS011;3433;48.730;9.108;2022-09-20T00:14:34;3.47;;;2.30;;
6791;SDS011;3433;48.730;9.108;2022-09-20T00:17:21;4.40;;;2.77;;
6791;SDS011;3433;48.730;9.108;2022-09-20T00:20:08;5.43;;;3.43;;
6791;SDS011;3433;48.730;9.108;2022-09-20T00:22:55;6.10;;;2.90;;
6791;SDS011;3433;48.730;9.108;2022-09-20T00:25:43;4.00;;;2.90;;
6791;SDS011;3433;48.730;9.108;2022-09-20T00:28:32;4.80;;;2.67;;
6791;SDS011;3433;48.730;9.108;2022-09-20T00:31:19;13.50;;;2.67;;
6791;SDS011;3433;48.730;9.108;2022-09-20T00:34:07;4.27;;;2.73;;
6791;SDS011;3433;48.730;9.108;2022-09-20T00:37:13;5.10;;;2.70;;
6791;SDS011;3433;48.730;9.108;2022-09-20T00:40:01;5.47;;;2.80;;
6791;SDS011;3433;48.730;9.108;2022-09-20T00:42:49;4.47;;;2.50;;
6791;SDS011;3433;48.730;9.108;2022-09-20T00:45:37;3.00;;;2.40;;
6791;SDS011;3433;48.730;9.108;2022-09-20T00:48:26;3.83;;;2.60;;
6791;SDS011;3433;48.730;9.108;2022-09-20T00:51:17;3.10;;;2.10;;
6791;SDS011;3433;48.730;9.108;2022-09-20T00:54:08;6.60;;;2.23;;
6791;SDS011;3433;48.730;9.108;2022-09-20T00:56:57;7.20;;;2.97;;
6791;SDS011;3433;48.730;9.108;2022-09-20T00:59:45;4.37;;;2.50;;
6791;SDS011;3433;48.730;9.108;2022-09-20T01:02:36;6.53;;;2.77;;
6791;SDS011;3433;48.730;9.108;2022-09-20T01:05:27;4.60;;;2.67;;
6791;SDS011;3433;48.730;9.108;2022-09-20T01:08:15;7.00;;;2.77;;
6791;SDS011;3433;48.730;9.108;2022-09-20T01:11:03;3.93;;;2.67;;
6791;SDS011;3433;48.730;9.108;2022-09-20T01:13:51;4.10;;;2.73;;
6791;SDS011;3433;48.730;9.108;2022-09-20T01:16:38;4.30;;;3.03;;
6791;SDS011;3433;48.730;9.108;2022-09-20T01:19:27;4.00;;;2.53;;
6791;SDS011;3433;48.730;9.108;2022-09-20T01:22:20;4.03;;;2.50;;
6791;SDS011;3433;48.730;9.108;2022-09-20T01:25:13;5.40;;;3.10;;
6791;SDS011;3433;48.730;9.108;2022-09-20T01:28:04;3.57;;;2.53;;
6791;SDS011;3433;48.730;9.108;2022-09-20T01:30:53;2.40;;;2.20;;
6791;SDS011;3433;48.730;9.108;2022-09-20T01:33:51;4.73;;;2.70;;
6791;SDS011;3433;48.730;9.108;2022-09-20T01:36:42;2.90;;;2.53;;
6791;SDS011;3433;48.730;9.108;2022-09-20T01:39:36;2.97;;;2.67;;
6791;SDS011;3433;48.730;9.108;2022-09-20T01:42:32;7.27;;;2.70;;
6791;SDS011;3433;48.730;9.108;2022-09-20T01:45:24;6.23;;;3.90;;
6791;SDS011;3433;48.730;9.108;2022-09-20T01:48:16;3.23;;;2.90;;
6791;SDS011;3433;48.730;9.108;2022-09-20T01:51:17;4.07;;;2.50;;
6791;SDS011;3433;48.730;9.108;2022-09-20T01:54:45;5.63;;;2.63;;
6791;SDS011;3433;48.730;9.108;2022-09-20T02:01:33;4.13;;;2.60;;
6791;SDS011;3433;48.730;9.108;2022-09-20T02:04:50;4.20;;;2.20;;
6791;SDS011;3433;48.730;9.108;2022-09-20T02:11:12;5.90;;;2.90;;
6791;SDS011;3433;48.730;9.108;2022-09-20T02:14:03;4.57;;;2.87;;
6791;SDS011;3433;48.730;9.108;2022-09-20T02:17:03;2.70;;;2.50;;
6791;SDS011;3433;48.730;9.108;2022-09-20T02:20:00;4.00;;;2.40;;
6791;SDS011;3433;48.730;9.108;2022-09-20T02:23:04;6.40;;;2.97;;
6791;SDS011;3433;48.730;9.108;2022-09-20T02:26:08;3.90;;;2.50;;
6791;SDS011;3433;48.730;9.108;2022-09-20T02:29:11;4.23;;;2.40;;
6791;SDS011;3433;48.730;9.108;2022-09-20T02:32:16;2.90;;;2.57;;
6791;SDS011;3433;48.730;9.108;2022-09-20T02:35:23;3.30;;;2.27;;
6791;SDS011;3433;48.730;9.108;2022-09-20T02:38:31;3.40;;;2.40;;
6791;SDS011;3433;48.730;9.108;2022-09-20T02:41:46;4.70;;;2.20;;
6791;SDS011;3433;48.730;9.108;2022-09-20T02:44:45;3.57;;;2.27;;
6791;SDS011;3433;48.730;9.108;2022-09-20T02:47:41;8.90;;;2.90;;
6791;SDS011;3433;48.730;9.108;2022-09-20T02:50:30;3.93;;;2.30;;
6791;SDS011;3433;48.730;9.108;2022-09-20T02:53:29;6.07;;;3.30;;
6791;SDS011;3433;48.730;9.108;2022-09-20T02:56:24;8.10;;;3.30;;
6791;SDS011;3433;48.730;9.108;2022-09-20T02:59:22;3.37;;;2.20;;
6791;SDS011;3433;48.730;9.108;2022-09-20T03:02:14;4.27;;;2.47;;
6791;SDS011;3433;48.730;9.108;2022-09-20T03:05:16;3.53;;;2.77;;
6791;SDS011;3433;48.730;9.108;2022-09-20T03:08:12;5.67;;;2.93;;
6791;SDS011;3433;48.730;9.108;2022-09-20T03:11:11;7.70;;;3.03;;
6791;SDS011;3433;48.730;9.108;2022-09-20T03:14:12;6.37;;;2.87;;
6791;SDS011;3433;48.730;9.108;2022-09-20T03:17:11;4.53;;;3.03;;
6791;SDS011;3433;48.730;9.108;2022-09-20T03:20:07;3.90;;;2.50;;
6791;SDS011;3433;48.730;9.108;2022-09-20T03:23:09;3.57;;;2.40;;
6791;SDS011;3433;48.730;9.108;2022-09-20T03:26:11;2.83;;;2.53;;
6791;SDS011;3433;48.730;9.108;2022-09-20T03:29:07;3.27;;;2.50;;
6791;SDS011;3433;48.730;9.108;2022-09-20T03:32:10;5.27;;;2.30;;
6791;SDS011;3433;48.730;9.108;2022-09-20T03:35:18;3.20;;;2.30;;
6791;SDS011;3433;48.730;9.108;2022-09-20T03:38:23;2.80;;;2.33;;
6791;SDS011;3433;48.730;9.108;2022-09-20T03:41:31;4.60;;;3.00;;
6791;SDS011;3433;48.730;9.108;2022-09-20T03:44:38;3.40;;;2.63;;
6791;SDS011;3433;48.730;9.108;2022-09-20T03:48:00;5.47;;;2.80;;
6791;SDS011;3433;48.730;9.108;2022-09-20T03:51:01;7.70;;;2.50;;
6791;SDS011;3433;48.730;9.108;2022-09-20T03:57:22;4.67;;;2.50;;
6791;SDS011;3433;48.730;9.108;2022-09-20T04:00:23;3.77;;;2.00;;
6791;SDS011;3433;48.730;9.108;2022-09-20T04:03:24;6.73;;;2.50;;
6791;SDS011;3433;48.730;9.108;2022-09-20T04:06:26;4.70;;;2.10;;
6791;SDS011;3433;48.730;9.108;2022-09-20T04:09:30;2.90;;;2.20;;
6791;SDS011;3433;48.730;9.108;2022-09-20T04:12:33;3.80;;;2.37;;
6791;SDS011;3433;48.730;9.108;2022-09-20T04:15:30;4.17;;;2.30;;
6791;SDS011;3433;48.730;9.108;2022-09-20T04:18:23;4.17;;;2.27;;
6791;SDS011;3433;48.730;9.108;2022-09-20T04:21:19;3.10;;;2.80;;
6791;SDS011;3433;48.730;9.108;2022-09-20T04:24:15;3.00;;;1.87;;
6791;SDS011;3433;48.730;9.108;2022-09-20T04:27:09;3.70;;;2.73;;
6791;SDS011;3433;48.730;9.108;2022-09-20T04:30:01;6.20;;;2.70;;
6791;SDS011;3433;48.730;9.108;2022-09-20T04:32:51;5.23;;;2.60;;
6791;SDS011;3433;48.730;9.108;2022-09-20T04:35:46;3.13;;;2.30;;
6791;SDS011;3433;48.730;9.108;2022-09-20T04:39:03;5.30;;;2.20;;
6791;SDS011;3433;48.730;9.108;2022-09-20T04:42:12;3.50;;;2.37;;
6791;SDS011;3433;48.730;9.108;2022-09-20T04:45:50;5.30;;;2.37;;
6791;SDS011;3433;48.730;9.108;2022-09-20T04:49:11;4.40;;;3.00;;
6791;SDS011;3433;48.730;9.108;2022-09-20T04:52:24;4.60;;;2.77;;
6791;SDS011;3433;48.730;9.108;2022-09-20T04:58:57;3.17;;;2.47;;
6791;SDS011;3433;48.730;9.108;2022-09-20T05:08:37;3.30;;;2.60;;
6791;SDS011;3433;48.730;9.108;2022-09-20T05:11:40;11.00;;;3.50;;
6791;SDS011;3433;48.730;9.108;2022-09-20T05:18:03;6.23;;;3.50;;
6791;SDS011;3433;48.730;9.108;2022-09-20T05:21:27;4.70;;;3.23;;
6791;SDS011;3433;48.730;9.108;2022-09-20T05:24:48;6.67;;;3.63;;
6791;SDS011;3433;48.730;9.108;2022-09-20T05:27:53;6.70;;;3.83;;
6791;SDS011;3433;48.730;9.108;2022-09-20T05:30:49;4.13;;;3.73;;
6791;SDS011;3433;48.730;9.108;2022-09-20T05:33:45;6.30;;;3.83;;
6791;SDS011;3433;48.730;9.108;2022-09-20T05:36:39;10.87;;;4.57;;
6791;SDS011;3433;48.730;9.108;2022-09-20T05:39:35;7.00;;;4.60;;
6791;SDS011;3433;48.730;9.108;2022-09-20T05:42:31;6.17;;;4.37;;
6791;SDS011;3433;48.730;9.108;2022-09-20T05:45:43;6.70;;;3.97;;
6791;SDS011;3433;48.730;9.108;2022-09-20T05:48:37;7.03;;;3.80;;
6791;SDS011;3433;48.730;9.108;2022-09-20T05:51:35;6.33;;;3.90;;
6791;SDS011;3433;48.730;9.108;2022-09-20T05:54:44;5.73;;;3.77;;
6791;SDS011;3433;48.730;9.108;2022-09-20T05:57:47;5.83;;;4.10;;
6791;SDS011;3433;48.730;9.108;2022-09-20T06:00:47;5.93;;;3.87;;
6791;SDS011;3433;48.730;9.108;2022-09-20T06:03:40;10.10;;;5.67;;
6791;SDS011;3433;48.730;9.108;2022-09-20T06:06:30;5.33;;;4.03;;
6791;SDS011;3433;48.730;9.108;2022-09-20T06:09:39;6.93;;;4.37;;
6791;SDS011;3433;48.730;9.108;2022-09-20T06:12:39;6.20;;;3.63;;
6791;SDS011;3433;48.730;9.108;2022-09-20T06:15:44;7.73;;;3.80;;
6791;SDS011;3433;48.730;9.108;2022-09-20T06:18:42;6.50;;;3.63;;
6791;SDS011;3433;48.730;9.108;2022-09-20T06:21:37;7.53;;;3.80;;
6791;SDS011;3433;48.730;9.108;2022-09-20T06:24:34;5.80;;;3.97;;
6791;SDS011;3433;48.730;9.108;2022-09-20T06:27:25;6.63;;;4.63;;
6791;SDS011;3433;48.730;9.108;2022-09-20T06:30:18;6.50;;;4.23;;
6791;SDS011;3433;48.730;9.108;2022-09-20T06:33:12;7.80;;;3.90;;
6791;SDS011;3433;48.730;9.108;2022-09-20T06:36:03;11.17;;;4.40;;
6791;SDS011;3433;48.730;9.108;2022-09-20T06:39:10;10.47;;;3.90;;
6791;SDS011;3433;48.730;9.108;2022-09-20T06:42:30;13.90;;;4.67;;
6791;SDS011;3433;48.730;9.108;2022-09-20T06:45:17;5.63;;;4.20;;
6791;SDS011;3433;48.730;9.108;2022-09-20T06:48:05;5.80;;;4.07;;
6791;SDS011;3433;48.730;9.108;2022-09-20T06:50:53;6.43;;;3.60;;
6791;SDS011;3433;48.730;9.108;2022-09-20T06:53:42;5.57;;;3.83;;
6791;SDS011;3433;48.730;9.108;2022-09-20T06:56:30;7.83;;;4.10;;
6791;SDS011;3433;48.730;9.108;2022-09-20T06:59:21;11.83;;;5.10;;
6791;SDS011;3433;48.730;9.108;2022-09-20T07:02:08;6.10;;;3.47;;
6791;SDS011;3433;48.730;9.108;2022-09-20T07:04:55;7.80;;;3.83;;
6791;SDS011;3433;48.730;9.108;2022-09-20T07:07:43;8.97;;;4.53;;
6791;SDS011;3433;48.730;9.108;2022-09-20T07:10:33;7.70;;;4.33;;
6791;SDS011;3433;48.730;9.108;2022-09-20T07:13:20;8.63;;;4.70;;
6791;SDS011;3433;48.730;9.108;2022-09-20T07:16:10;5.07;;;4.53;;
6791;SDS011;3433;48.730;9.108;2022-09-20T07:18:59;8.60;;;4.00;;
6791;SDS011;3433;48.730;9.108;2022-09-20T07:21:46;12.00;;;4.23;;
6791;SDS011;3433;48.730;9.108;2022-09-20T07:24:33;6.20;;;3.83;;
6791;SDS011;3433;48.730;9.108;2022-09-20T07:27:22;8.10;;;4.00;;
6791;SDS011;3433;48.730;9.108;2022-09-20T07:30:10;5.60;;;3.80;;
6791;SDS011;3433;48.730;9.108;2022-09-20T07:32:58;8.60;;;3.97;;
6791;SDS011;3433;48.730;9.108;2022-09-20T07:35:47;12.77;;;4.20;;
6791;SDS011;3433;48.730;9.108;2022-09-20T07:38:34;9.47;;;4.03;;
6791;SDS011;3433;48.730;9.108;2022-09-20T07:41:21;6.07;;;3.67;;
6791;SDS011;3433;48.730;9.108;2022-09-20T07:44:10;10.23;;;3.83;;
6791;SDS011;3433;48.730;9.108;2022-09-20T07:47:12;6.17;;;4.03;;
6791;SDS011;3433;48.730;9.108;2022-09-20T07:50:00;13.03;;;3.73;;
6791;SDS011;3433;48.730;9.108;2022-09-20T07:52:48;7.03;;;3.80;;
6791;SDS011;3433;48.730;9.108;2022-09-20T07:55:35;6.33;;;3.40;;
6791;SDS011;3433;48.730;9.108;2022-09-20T07:58:22;5.87;;;3.27;;
6791;SDS011;3433;48.730;9.108;2022-09-20T08:01:11;9.83;;;3.07;;
6791;SDS011;3433;48.730;9.108;2022-09-20T08:03:58;4.07;;;3.07;;
6791;SDS011;3433;48.730;9.108;2022-09-20T08:06:46;9.33;;;3.23;;
6791;SDS011;3433;48.730;9.108;2022-09-20T08:09:35;6.90;;;2.70;;
6791;SDS011;3433;48.730;9.108;2022-09-20T08:12:22;5.17;;;2.50;;
6791;SDS011;3433;48.730;9.108;2022-09-20T08:15:10;5.50;;;3.10;;
6791;SDS011;3433;48.730;9.108;2022-09-20T08:17:59;7.87;;;2.20;;
6791;SDS011;3433;48.730;9.108;2022-09-20T08:20:47;6.10;;;1.90;;
6791;SDS011;3433;48.730;9.108;2022-09-20T08:23:34;6.40;;;2.83;;
6791;SDS011;3433;48.730;9.108;2022-09-20T08:26:23;11.00;;;2.97;;
6791;SDS011;3433;48.730;9.108;2022-09-20T08:29:12;8.90;;;2.77;;
6791;SDS011;3433;48.730;9.108;2022-09-20T08:32:00;7.90;;;2.80;;
6791;SDS011;3433;48.730;9.108;2022-09-20T08:34:49;4.00;;;2.27;;
6791;SDS011;3433;48.730;9.108;2022-09-20T08:37:36;4.13;;;2.23;;
6791;SDS011;3433;48.730;9.108;2022-09-20T08:40:23;4.67;;;2.43;;
6791;SDS011;3433;48.730;9.108;2022-09-20T08:43:11;6.60;;;2.63;;
6791;SDS011;3433;48.730;9.108;2022-09-20T08:45:58;4.37;;;2.10;;
6791;SDS011;3433;48.730;9.108;2022-09-20T08:48:48;9.50;;;2.37;;
6791;SDS011;3433;48.730;9.108;2022-09-20T08:51:38;6.53;;;2.17;;
6791;SDS011;3433;48.730;9.108;2022-09-20T08:54:29;3.97;;;2.30;;
6791;SDS011;3433;48.730;9.108;2022-09-20T08:57:17;5.90;;;1.73;;
6791;SDS011;3433;48.730;9.108;2022-09-20T09:00:09;9.73;;;2.30;;
6791;SDS011;3433;48.730;9.108;2022-09-20T09:03:03;5.60;;;2.20;;
6791;SDS011;3433;48.730;9.108;2022-09-20T09:05:52;7.67;;;1.63;;
6791;SDS011;3433;48.730;9.108;2022-09-20T09:08:41;5.87;;;2.00;;
6791;SDS011;3433;48.730;9.108;2022-09-20T09:11:30;3.00;;;1.40;;
6791;SDS011;3433;48.730;9.108;2022-09-20T09:14:22;3.53;;;1.93;;
6791;SDS011;3433;48.730;9.108;2022-09-20T09:17:29;4.03;;;1.90;;
6791;SDS011;3433;48.730;9.108;2022-09-20T09:20:17;4.80;;;2.10;;
6791;SDS011;3433;48.730;9.108;2022-09-20T09:23:07;3.40;;;2.00;;
6791;SDS011;3433;48.730;9.108;2022-09-20T09:25:55;9.67;;;1.90;;
6791;SDS011;3433;48.730;9.108;2022-09-20T09:29:08;5.40;;;1.90;;
6791;SDS011;3433;48.730;9.108;2022-09-20T09:32:14;2.30;;;1.67;;
6791;SDS011;3433;48.730;9.108;2022-09-20T09:35:19;8.37;;;2.00;;
6791;SDS011;3433;48.730;9.108;2022-09-20T09:38:14;3.53;;;1.40;;
6791;SDS011;3433;48.730;9.108;2022-09-20T09:41:06;3.27;;;1.40;;
6791;SDS011;3433;48.730;9.108;2022-09-20T09:44:17;3.73;;;1.50;;
6791;SDS011;3433;48.730;9.108;2022-09-20T09:47:09;2.50;;;1.73;;
6791;SDS011;3433;48.730;9.108;2022-09-20T09:50:19;3.63;;;1.83;;
6791;SDS011;3433;48.730;9.108;2022-09-20T09:53:09;2.47;;;1.47;;
6791;SDS011;3433;48.730;9.108;2022-09-20T09:56:02;3.30;;;1.17;;
6791;SDS011;3433;48.730;9.108;2022-09-20T09:59:20;6.90;;;1.63;;
6791;SDS011;3433;48.730;9.108;2022-09-20T10:02:50;5.30;;;1.57;;
6791;SDS011;3433;48.730;9.108;2022-09-20T10:05:55;6.43;;;1.73;;
6791;SDS011;3433;48.730;9.108;2022-09-20T10:08:57;5.00;;;2.70;;
6791;SDS011;3433;48.730;9.108;2022-09-20T10:12:00;3.83;;;1.70;;
6791;SDS011;3433;48.730;9.108;2022-09-20T10:15:02;5.43;;;2.00;;
6791;SDS011;3433;48.730;9.108;2022-09-20T10:18:02;4.60;;;2.17;;
6791;SDS011;3433;48.730;9.108;2022-09-20T10:21:05;4.47;;;1.80;;
6791;SDS011;3433;48.730;9.108;2022-09-20T10:24:03;4.60;;;2.20;;
6791;SDS011;3433;48.730;9.108;2022-09-20T10:27:09;3.90;;;1.30;;
6791;SDS011;3433;48.730;9.108;2022-09-20T10:30:07;4.47;;;1.80;;
6791;SDS011;3433;48.730;9.108;2022-09-20T10:32:59;6.67;;;2.20;;
6791;SDS011;3433;48.730;9.108;2022-09-20T10:35:52;3.17;;;1.87;;
6791;SDS011;3433;48.730;9.108;2022-09-20T10:38:49;6.60;;;1.70;;
6791;SDS011;3433;48.730;9.108;2022-09-20T10:41:44;3.23;;;1.67;;
6791;SDS011;3433;48.730;9.108;2022-09-20T10:45:03;3.03;;;1.80;;
6791;SDS011;3433;48.730;9.108;2022-09-20T10:47:59;4.60;;;1.83;;
6791;SDS011;3433;48.730;9.108;2022-09-20T10:50:52;3.13;;;2.07;;
6791;SDS011;3433;48.730;9.108;2022-09-20T10:53:46;4.23;;;2.00;;
6791;SDS011;3433;48.730;9.108;2022-09-20T10:56:43;4.17;;;1.70;;
6791;SDS011;3433;48.730;9.108;2022-09-20T10:59:36;4.40;;;1.70;;
6791;SDS011;3433;48.730;9.108;2022-09-20T11:02:37;5.90;;;2.17;;
6791;SDS011;3433;48.730;9.108;2022-09-20T11:05:39;4.17;;;1.80;;
6791;SDS011;3433;48.730;9.108;2022-09-20T11:08:38;4.87;;;1.70;;
6791;SDS011;3433;48.730;9.108;2022-09-20T11:11:28;6.83;;;1.80;;
6791;SDS011;3433;48.730;9.108;2022-09-20T11:14:20;2.80;;;1.43;;
6791;SDS011;3433;48.730;9.108;2022-09-20T11:17:14;6.83;;;2.17;;
6791;SDS011;3433;48.730;9.108;2022-09-20T11:20:12;2.60;;;1.63;;
6791;SDS011;3433;48.730;9.108;2022-09-20T11:23:07;3.53;;;2.00;;
6791;SDS011;3433;48.730;9.108;2022-09-20T11:26:00;3.07;;;1.63;;
6791;SDS011;3433;48.730;9.108;2022-09-20T11:28:49;8.30;;;1.63;;
6791;SDS011;3433;48.730;9.108;2022-09-20T11:31:41;4.07;;;1.73;;
6791;SDS011;3433;48.730;9.108;2022-09-20T11:34:32;2.60;;;1.20;;
6791;SDS011;3433;48.730;9.108;2022-09-20T11:37:29;4.07;;;1.93;;
6791;SDS011;3433;48.730;9.108;2022-09-20T11:40:21;3.47;;;1.30;;
6791;SDS011;3433;48.730;9.108;2022-09-20T11:43:13;2.80;;;1.30;;
6791;SDS011;3433;48.730;9.108;2022-09-20T11:46:05;6.00;;;1.73;;
6791;SDS011;3433;48.730;9.108;2022-09-20T11:48:57;4.80;;;1.60;;
6791;SDS011;3433;48.730;9.108;2022-09-20T11:51:59;2.77;;;1.20;;
6791;SDS011;3433;48.730;9.108;2022-09-20T11:55:21;3.80;;;1.90;;
6791;SDS011;3433;48.730;9.108;2022-09-20T11:58:18;4.10;;;1.63;;
6791;SDS011;3433;48.730;9.108;2022-09-20T12:01:06;4.37;;;1.70;;
6791;SDS011;3433;48.730;9.108;2022-09-20T12:03:59;2.60;;;1.93;;
6791;SDS011;3433;48.730;9.108;2022-09-20T12:06:55;2.30;;;1.33;;
6791;SDS011;3433;48.730;9.108;2022-09-20T12:09:45;4.20;;;1.73;;
6791;SDS011;3433;48.730;9.108;2022-09-20T12:12:42;4.03;;;2.00;;
6791;SDS011;3433;48.730;9.108;2022-09-20T12:15:33;3.30;;;1.73;;
6791;SDS011;3433;48.730;9.108;2022-09-20T12:28:56;2.40;;;1.90;;
6791;SDS011;3433;48.730;9.108;2022-09-20T12:31:50;3.17;;;1.90;;
6791;SDS011;3433;48.730;9.108;2022-09-20T12:34:39;2.50;;;1.80;;
6791;SDS011;3433;48.730;9.108;2022-09-20T12:37:26;3.00;;;2.20;;
6791;SDS011;3433;48.730;9.108;2022-09-20T12:40:14;5.33;;;2.47;;
6791;SDS011;3433;48.730;9.108;2022-09-20T12:43:03;2.90;;;2.10;;
6791;SDS011;3433;48.730;9.108;2022-09-20T12:45:53;4.10;;;2.47;;
6791;SDS011;3433;48.730;9.108;2022-09-20T12:48:41;4.43;;;1.90;;
6791;SDS011;3433;48.730;9.108;2022-09-20T12:51:29;4.67;;;2.23;;
6791;SDS011;3433;48.730;9.108;2022-09-20T12:54:47;5.87;;;1.57;;
6791;SDS011;3433;48.730;9.108;2022-09-20T12:57:36;1.80;;;1.70;;
6791;SDS011;3433;48.730;9.108;2022-09-20T13:00:28;3.70;;;2.20;;
6791;SDS011;3433;48.730;9.108;2022-09-20T13:03:27;4.80;;;2.00;;
6791;SDS011;3433;48.730;9.108;2022-09-20T13:06:23;3.13;;;2.10;;
6791;SDS011;3433;48.730;9.108;2022-09-20T13:09:10;7.73;;;1.90;;
6791;SDS011;3433;48.730;9.108;2022-09-20T13:11:59;4.57;;;1.90;;
6791;SDS011;3433;48.730;9.108;2022-09-20T13:14:47;3.53;;;1.33;;
6791;SDS011;3433;48.730;9.108;2022-09-20T13:17:36;4.60;;;1.60;;
6791;SDS011;3433;48.730;9.108;2022-09-20T13:20:29;3.43;;;2.17;;
6791;SDS011;3433;48.730;9.108;2022-09-20T13:23:20;3.73;;;1.50;;
6791;SDS011;3433;48.730;9.108;2022-09-20T13:26:11;4.30;;;2.23;;
6791;SDS011;3433;48.730;9.108;2022-09-20T13:29:03;3.63;;;2.23;;
6791;SDS011;3433;48.730;9.108;2022-09-20T13:31:55;5.60;;;2.57;;
6791;SDS011;3433;48.730;9.108;2022-09-20T13:34:42;4.53;;;2.07;;
6791;SDS011;3433;48.730;9.108;2022-09-20T13:37:32;2.37;;;2.07;;
6791;SDS011;3433;48.730;9.108;2022-09-20T13:40:21;7.43;;;2.60;;
6791;SDS011;3433;48.730;9.108;2022-09-20T13:43:17;3.80;;;2.50;;
6791;SDS011;3433;48.730;9.108;2022-09-20T13:46:16;6.10;;;2.90;;
6791;SDS011;3433;48.730;9.108;2022-09-20T13:49:11;7.30;;;2.20;;
6791;SDS011;3433;48.730;9.108;2022-09-20T13:52:12;5.93;;;2.17;;
6791;SDS011;3433;48.730;9.108;2022-09-20T13:55:20;3.10;;;1.80;;
6791;SDS011;3433;48.730;9.108;2022-09-20T13:58:16;2.73;;;1.80;;
6791;SDS011;3433;48.730;9.108;2022-09-20T14:01:06;2.43;;;1.67;;
6791;SDS011;3433;48.730;9.108;2022-09-20T14:04:12;2.80;;;1.57;;
6791;SDS011;3433;48.730;9.108;2022-09-20T14:07:02;2.27;;;1.80;;
6791;SDS011;3433;48.730;9.108;2022-09-20T14:09:52;5.80;;;2.00;;
6791;SDS011;3433;48.730;9.108;2022-09-20T14:12:42;5.37;;;2.80;;
6791;SDS011;3433;48.730;9.108;2022-09-20T14:15:34;3.40;;;2.17;;
6791;SDS011;3433;48.730;9.108;2022-09-20T14:18:23;2.33;;;1.30;;
6791;SDS011;3433;48.730;9.108;2022-09-20T14:21:12;3.87;;;1.90;;
6791;SDS011;3433;48.730;9.108;2022-09-20T14:24:12;3.77;;;1.70;;
6791;SDS011;3433;48.730;9.108;2022-09-20T14:27:14;5.63;;;2.00;;
6791;SDS011;3433;48.730;9.108;2022-09-20T14:30:05;4.97;;;2.00;;
6791;SDS011;3433;48.730;9.108;2022-09-20T14:32:53;5.40;;;2.17;;
6791;SDS011;3433;48.730;9.108;2022-09-20T14:35:46;6.70;;;2.00;;
6791;SDS011;3433;48.730;9.108;2022-09-20T14:38:35;4.00;;;1.60;;
6791;SDS011;3433;48.730;9.108;2022-09-20T14:41:26;3.03;;;1.53;;
6791;SDS011;3433;48.730;9.108;2022-09-20T14:44:20;3.40;;;1.90;;
6791;SDS011;3433;48.730;9.108;2022-09-20T14:47:14;6.47;;;1.60;;
6791;SDS011;3433;48.730;9.108;2022-09-20T14:50:17;3.73;;;1.50;;
6791;SDS011;3433;48.730;9.108;2022-09-20T14:53:22;4.00;;;1.70;;
6791;SDS011;3433;48.730;9.108;2022-09-20T14:56:13;1.80;;;1.70;;
6791;SDS011;3433;48.730;9.108;2022-09-20T14:59:20;4.40;;;1.80;;
6791;SDS011;3433;48.730;9.108;2022-09-20T15:02:10;2.20;;;2.00;;
6791;SDS011;3433;48.730;9.108;2022-09-20T15:05:01;2.73;;;2.07;;
6791;SDS011;3433;48.730;9.108;2022-09-20T15:07:48;2.13;;;1.80;;
6791;SDS011;3433;48.730;9.108;2022-09-20T15:10:36;2.60;;;1.90;;
6791;SDS011;3433;48.730;9.108;2022-09-20T15:13:24;7.33;;;3.10;;
6791;SDS011;3433;48.730;9.108;2022-09-20T15:16:11;3.20;;;2.33;;
6791;SDS011;3433;48.730;9.108;2022-09-20T15:19:11;3.33;;;2.30;;
6791;SDS011;3433;48.730;9.108;2022-09-20T15:21:58;2.17;;;1.97;;
6791;SDS011;3433;48.730;9.108;2022-09-20T15:24:45;1.83;;;1.63;;
6791;SDS011;3433;48.730;9.108;2022-09-20T15:27:33;2.33;;;1.40;;
6791;SDS011;3433;48.730;9.108;2022-09-20T15:30:20;2.43;;;1.97;;
6791;SDS011;3433;48.730;9.108;2022-09-20T15:33:08;2.80;;;1.33;;
6791;SDS011;3433;48.730;9.108;2022-09-20T15:35:59;2.87;;;1.23;;
6791;SDS011;3433;48.730;9.108;2022-09-20T15:38:47;1.60;;;1.30;;
6791;SDS011;3433;48.730;9.108;2022-09-20T15:41:35;3.10;;;1.13;;
6791;SDS011;3433;48.730;9.108;2022-09-20T15:44:22;1.53;;;1.43;;
6791;SDS011;3433;48.730;9.108;2022-09-20T15:47:09;4.63;;;1.50;;
6791;SDS011;3433;48.730;9.108;2022-09-20T15:49:57;3.23;;;1.43;;
6791;SDS011;3433;48.730;9.108;2022-09-20T15:52:45;1.87;;;1.00;;
6791;SDS011;3433;48.730;9.108;2022-09-20T15:55:34;5.90;;;1.50;;
6791;SDS011;3433;48.730;9.108;2022-09-20T15:58:22;3.13;;;1.83;;
6791;SDS011;3433;48.730;9.108;2022-09-20T16:01:10;5.47;;;2.10;;
6791;SDS011;3433;48.730;9.108;2022-09-20T16:04:03;3.47;;;1.90;;
6791;SDS011;3433;48.730;9.108;2022-09-20T16:06:50;1.80;;;1.63;;
6791;SDS011;3433;48.730;9.108;2022-09-20T16:09:39;2.77;;;1.37;;
6791;SDS011;3433;48.730;9.108;2022-09-20T16:12:28;3.20;;;1.50;;
6791;SDS011;3433;48.730;9.108;2022-09-20T16:15:15;3.60;;;1.90;;
6791;SDS011;3433;48.730;9.108;2022-09-20T16:18:02;4.10;;;2.03;;
6791;SDS011;3433;48.730;9.108;2022-09-20T16:21:07;3.87;;;2.00;;
6791;SDS011;3433;48.730;9.108;2022-09-20T16:23:55;1.97;;;1.67;;
6791;SDS011;3433;48.730;9.108;2022-09-20T16:26:44;1.93;;;1.73;;
6791;SDS011;3433;48.730;9.108;2022-09-20T16:29:31;3.50;;;2.20;;
6791;SDS011;3433;48.730;9.108;2022-09-20T16:32:19;3.37;;;1.97;;
6791;SDS011;3433;48.730;9.108;2022-09-20T16:35:06;2.53;;;1.63;;
6791;SDS011;3433;48.730;9.108;2022-09-20T16:37:54;3.37;;;2.13;;
6791;SDS011;3433;48.730;9.108;2022-09-20T16:40:42;2.30;;;2.07;;
6791;SDS011;3433;48.730;9.108;2022-09-20T16:43:30;4.33;;;2.07;;
6791;SDS011;3433;48.730;9.108;2022-09-20T16:46:18;4.73;;;2.37;;
6791;SDS011;3433;48.730;9.108;2022-09-20T16:49:06;3.87;;;2.20;;
6791;SDS011;3433;48.730;9.108;2022-09-20T16:51:55;3.73;;;2.23;;
6791;SDS011;3433;48.730;9.108;2022-09-20T16:54:42;5.40;;;2.63;;
6791;SDS011;3433;48.730;9.108;2022-09-20T16:57:29;4.13;;;2.10;;
6791;SDS011;3433;48.730;9.108;2022-09-20T17:00:18;4.50;;;2.40;;
6791;SDS011;3433;48.730;9.108;2022-09-20T17:03:06;4.60;;;2.40;;
6791;SDS011;3433;48.730;9.108;2022-09-20T17:05:59;6.40;;;2.63;;
6791;SDS011;3433;48.730;9.108;2022-09-20T17:08:46;10.43;;;3.10;;
6791;SDS011;3433;48.730;9.108;2022-09-20T17:11:38;7.20;;;3.20;;
6791;SDS011;3433;48.730;9.108;2022-09-20T17:14:28;4.53;;;2.80;;
6791;SDS011;3433;48.730;9.108;2022-09-20T17:17:17;6.40;;;3.30;;
6791;SDS011;3433;48.730;9.108;2022-09-20T17:20:07;4.73;;;2.77;;
6791;SDS011;3433;48.730;9.108;2022-09-20T17:22:54;5.47;;;2.40;;
6791;SDS011;3433;48.730;9.108;2022-09-20T17:25:42;3.33;;;2.50;;
6791;SDS011;3433;48.730;9.108;2022-09-20T17:28:34;3.03;;;2.10;;
6791;SDS011;3433;48.730;9.108;2022-09-20T17:31:26;10.03;;;6.23;;
6791;SDS011;3433;48.730;9.108;2022-09-20T17:34:17;7.30;;;4.60;;
6791;SDS011;3433;48.730;9.108;2022-09-20T17:37:05;4.57;;;3.90;;
6791;SDS011;3433;48.730;9.108;2022-09-20T17:39:53;4.07;;;3.67;;
6791;SDS011;3433;48.730;9.108;2022-09-20T17:42:47;5.30;;;3.50;;
6791;SDS011;3433;48.730;9.108;2022-09-20T17:45:35;4.13;;;2.70;;
6791;SDS011;3433;48.730;9.108;2022-09-20T17:48:22;3.97;;;3.00;;
6791;SDS011;3433;48.730;9.108;2022-09-20T17:51:11;3.67;;;2.90;;
6791;SDS011;3433;48.730;9.108;2022-09-20T17:53:58;3.70;;;2.60;;
6791;SDS011;3433;48.730;9.108;2022-09-20T17:56:46;3.67;;;2.57;;
6791;SDS011;3433;48.730;9.108;2022-09-20T17:59:34;5.00;;;3.43;;
6791;SDS011;3433;48.730;9.108;2022-09-20T18:02:22;4.87;;;3.90;;
6791;SDS011;3433;48.730;9.108;2022-09-20T18:05:09;4.27;;;3.73;;
6791;SDS011;3433;48.730;9.108;2022-09-20T18:07:57;6.00;;;2.63;;
6791;SDS011;3433;48.730;9.108;2022-09-20T18:10:54;4.57;;;3.47;;
6791;SDS011;3433;48.730;9.108;2022-09-20T18:13:41;3.60;;;2.87;;
6791;SDS011;3433;48.730;9.108;2022-09-20T18:16:28;3.70;;;2.80;;
6791;SDS011;3433;48.730;9.108;2022-09-20T18:19:16;3.33;;;3.03;;
6791;SDS011;3433;48.730;9.108;2022-09-20T18:22:03;3.53;;;2.70;;
6791;SDS011;3433;48.730;9.108;2022-09-20T18:24:52;5.90;;;3.23;;
6791;SDS011;3433;48.730;9.108;2022-09-20T18:27:39;8.17;;;3.20;;
6791;SDS011;3433;48.730;9.108;2022-09-20T18:30:27;4.03;;;2.60;;
6791;SDS011;3433;48.730;9.108;2022-09-20T18:33:18;3.77;;;2.27;;
6791;SDS011;3433;48.730;9.108;2022-09-20T18:36:05;5.30;;;2.67;;